Ritzville, Washington
Current Conditions -  °F | °C
As of 12:52 PM on Saturday 22 Nov 2014 (Local Time) from KMWH Reporting Station
Overcast Overcast  
Wind Chill: 39°   Ceiling: 9500
Heat Index: 44°   Visibility: 10mi
Dew Point: 32°   Wind: 9mph
Humidity: 63%   Direction: 230°SW
Pressure: 29.73"   Gusts: NA
Location:  47.13°N, 118.38°W
Report Text: KMWH 222052Z 23008KT 10SM OVC095 07/00 A2973 RMK AO2 SLP075 T00670000 53013
Loading
Personal Weather Stations






























Interactive Weather Map New forecast layout! Learn more

10-Day Weather Forecast

Advertisements
Track Severe Weather on mobile